sensor_id;sensor_type;location;lat;lon;timestamp;P1;durP1;ratioP1;P2;durP2;ratioP2
63975;SDS011;50167;47.958;21.780;2022-09-09T15:09:53;4.28;;;2.98;;
63975;SDS011;50167;47.958;21.780;2022-09-09T15:12:18;5.42;;;3.50;;
63975;SDS011;50167;47.958;21.780;2022-09-09T15:14:46;4.60;;;3.33;;
63975;SDS011;50167;47.958;21.780;2022-09-09T15:17:12;3.40;;;3.10;;
63975;SDS011;50167;47.958;21.780;2022-09-09T15:19:38;3.60;;;3.30;;
63975;SDS011;50167;47.958;21.780;2022-09-09T15:22:05;7.70;;;3.77;;
63975;SDS011;50167;47.958;21.780;2022-09-09T15:24:32;5.72;;;4.00;;
63975;SDS011;50167;47.958;21.780;2022-09-09T15:26:59;7.55;;;3.67;;
63975;SDS011;50167;47.958;21.780;2022-09-09T15:29:27;6.53;;;4.30;;
63975;SDS011;50167;47.958;21.780;2022-09-09T15:31:54;8.33;;;4.65;;
63975;SDS011;50167;47.958;21.780;2022-09-09T15:34:23;9.00;;;4.08;;
63975;SDS011;50167;47.958;21.780;2022-09-09T15:36:52;11.63;;;4.45;;
63975;SDS011;50167;47.958;21.780;2022-09-09T15:39:20;5.15;;;3.87;;
63975;SDS011;50167;47.958;21.780;2022-09-09T15:42:01;6.47;;;4.33;;
63975;SDS011;50167;47.958;21.780;2022-09-09T15:44:28;6.83;;;4.47;;
63975;SDS011;50167;47.958;21.780;2022-09-09T15:46:54;7.28;;;3.83;;
63975;SDS011;50167;47.958;21.780;2022-09-09T15:49:25;9.28;;;4.55;;
63975;SDS011;50167;47.958;21.780;2022-09-09T15:51:52;8.10;;;4.03;;
63975;SDS011;50167;47.958;21.780;2022-09-09T15:54:24;5.25;;;4.08;;
63975;SDS011;50167;47.958;21.780;2022-09-09T15:56:52;6.00;;;3.87;;
63975;SDS011;50167;47.958;21.780;2022-09-09T15:59:22;13.40;;;4.40;;
63975;SDS011;50167;47.958;21.780;2022-09-09T16:01:50;14.20;;;5.70;;
63975;SDS011;50167;47.958;21.780;2022-09-09T16:04:22;4.75;;;3.27;;
63975;SDS011;50167;47.958;21.780;2022-09-09T16:06:47;5.78;;;4.00;;
63975;SDS011;50167;47.958;21.780;2022-09-09T16:09:17;8.58;;;3.60;;
63975;SDS011;50167;47.958;21.780;2022-09-09T16:11:44;8.43;;;3.27;;
63975;SDS011;50167;47.958;21.780;2022-09-09T16:14:10;8.78;;;3.80;;
63975;SDS011;50167;47.958;21.780;2022-09-09T16:16:36;4.30;;;3.90;;
63975;SDS011;50167;47.958;21.780;2022-09-09T16:19:04;11.80;;;4.87;;
63975;SDS011;50167;47.958;21.780;2022-09-09T16:21:34;4.58;;;3.90;;
63975;SDS011;50167;47.958;21.780;2022-09-09T16:24:05;10.82;;;4.60;;
63975;SDS011;50167;47.958;21.780;2022-09-09T16:26:35;12.58;;;4.70;;
63975;SDS011;50167;47.958;21.780;2022-09-09T16:29:04;7.92;;;4.95;;
63975;SDS011;50167;47.958;21.780;2022-09-09T16:31:30;7.03;;;3.85;;
63975;SDS011;50167;47.958;21.780;2022-09-09T16:33:58;13.98;;;4.78;;
63975;SDS011;50167;47.958;21.780;2022-09-09T16:36:29;9.03;;;4.28;;
63975;SDS011;50167;47.958;21.780;2022-09-09T16:38:56;6.22;;;4.25;;
63975;SDS011;50167;47.958;21.780;2022-09-09T16:41:25;6.60;;;5.05;;
63975;SDS011;50167;47.958;21.780;2022-09-09T16:43:53;7.30;;;4.80;;
63975;SDS011;50167;47.958;21.780;2022-09-09T16:46:22;6.90;;;4.92;;
63975;SDS011;50167;47.958;21.780;2022-09-09T16:48:49;5.00;;;4.33;;
63975;SDS011;50167;47.958;21.780;2022-09-09T16:51:18;6.70;;;4.97;;
63975;SDS011;50167;47.958;21.780;2022-09-09T16:53:48;7.90;;;4.72;;
63975;SDS011;50167;47.958;21.780;2022-09-09T16:56:18;8.03;;;4.50;;
63975;SDS011;50167;47.958;21.780;2022-09-09T16:58:53;7.17;;;4.40;;
63975;SDS011;50167;47.958;21.780;2022-09-09T17:01:22;5.15;;;4.35;;
63975;SDS011;50167;47.958;21.780;2022-09-09T17:03:56;5.90;;;4.47;;
63975;SDS011;50167;47.958;21.780;2022-09-09T17:06:23;11.25;;;3.90;;
63975;SDS011;50167;47.958;21.780;2022-09-09T17:08:54;6.03;;;5.03;;
63975;SDS011;50167;47.958;21.780;2022-09-09T17:11:28;5.92;;;5.03;;
63975;SDS011;50167;47.958;21.780;2022-09-09T17:13:55;6.33;;;4.95;;
63975;SDS011;50167;47.958;21.780;2022-09-09T17:16:27;9.88;;;4.97;;
63975;SDS011;50167;47.958;21.780;2022-09-09T17:18:56;8.05;;;5.55;;
63975;SDS011;50167;47.958;21.780;2022-09-09T17:21:24;7.15;;;4.92;;
63975;SDS011;50167;47.958;21.780;2022-09-09T17:23:53;9.85;;;4.83;;
63975;SDS011;50167;47.958;21.780;2022-09-09T17:26:21;10.35;;;5.58;;
63975;SDS011;50167;47.958;21.780;2022-09-09T17:28:52;8.15;;;5.10;;
63975;SDS011;50167;47.958;21.780;2022-09-09T17:31:20;5.20;;;4.67;;
63975;SDS011;50167;47.958;21.780;2022-09-09T17:33:46;6.47;;;5.03;;
63975;SDS011;50167;47.958;21.780;2022-09-09T17:43:43;11.78;;;4.97;;
63975;SDS011;50167;47.958;21.780;2022-09-09T17:46:17;5.35;;;4.85;;
63975;SDS011;50167;47.958;21.780;2022-09-09T17:48:58;7.55;;;5.70;;
63975;SDS011;50167;47.958;21.780;2022-09-09T17:51:26;11.10;;;5.25;;
63975;SDS011;50167;47.958;21.780;2022-09-09T17:53:59;7.25;;;4.72;;
63975;SDS011;50167;47.958;21.780;2022-09-09T17:58:59;8.95;;;4.67;;
63975;SDS011;50167;47.958;21.780;2022-09-09T18:01:32;7.17;;;5.03;;
63975;SDS011;50167;47.958;21.780;2022-09-09T18:06:27;7.78;;;4.80;;
63975;SDS011;50167;47.958;21.780;2022-09-09T18:09:00;5.25;;;4.75;;
63975;SDS011;50167;47.958;21.780;2022-09-09T18:11:30;8.63;;;5.95;;
63975;SDS011;50167;47.958;21.780;2022-09-09T18:14:02;6.95;;;5.22;;
63975;SDS011;50167;47.958;21.780;2022-09-09T18:16:31;6.28;;;5.67;;
63975;SDS011;50167;47.958;21.780;2022-09-09T18:19:05;9.83;;;6.15;;
63975;SDS011;50167;47.958;21.780;2022-09-09T18:21:36;9.78;;;6.67;;
63975;SDS011;50167;47.958;21.780;2022-09-09T18:24:05;8.00;;;6.45;;
63975;SDS011;50167;47.958;21.780;2022-09-09T18:26:33;15.98;;;6.90;;
63975;SDS011;50167;47.958;21.780;2022-09-09T18:29:03;7.35;;;6.70;;
63975;SDS011;50167;47.958;21.780;2022-09-09T18:33:59;11.08;;;5.65;;
63975;SDS011;50167;47.958;21.780;2022-09-09T18:36:32;7.37;;;5.53;;
63975;SDS011;50167;47.958;21.780;2022-09-09T18:39:02;10.15;;;6.20;;
63975;SDS011;50167;47.958;21.780;2022-09-09T18:41:36;8.75;;;5.50;;
63975;SDS011;50167;47.958;21.780;2022-09-09T18:44:06;6.12;;;5.50;;
63975;SDS011;50167;47.958;21.780;2022-09-09T18:46:40;8.98;;;5.95;;
63975;SDS011;50167;47.958;21.780;2022-09-09T18:49:07;9.15;;;6.10;;
63975;SDS011;50167;47.958;21.780;2022-09-09T18:51:36;5.87;;;5.37;;
63975;SDS011;50167;47.958;21.780;2022-09-09T18:54:06;7.72;;;5.62;;
63975;SDS011;50167;47.958;21.780;2022-09-09T18:56:37;8.50;;;5.33;;
63975;SDS011;50167;47.958;21.780;2022-09-09T18:59:05;11.08;;;5.83;;
63975;SDS011;50167;47.958;21.780;2022-09-09T19:01:33;7.22;;;6.03;;
63975;SDS011;50167;47.958;21.780;2022-09-09T19:04:02;10.58;;;6.75;;
63975;SDS011;50167;47.958;21.780;2022-09-09T19:06:31;17.77;;;6.80;;
63975;SDS011;50167;47.958;21.780;2022-09-09T19:08:58;15.25;;;6.80;;
63975;SDS011;50167;47.958;21.780;2022-09-09T19:11:25;10.03;;;6.15;;
63975;SDS011;50167;47.958;21.780;2022-09-09T19:13:57;6.12;;;5.53;;
63975;SDS011;50167;47.958;21.780;2022-09-09T19:16:24;6.67;;;6.08;;
63975;SDS011;50167;47.958;21.780;2022-09-09T19:18:54;7.35;;;6.65;;
63975;SDS011;50167;47.958;21.780;2022-09-09T19:21:24;13.65;;;5.70;;
63975;SDS011;50167;47.958;21.780;2022-09-09T19:26:25;6.15;;;5.55;;
63975;SDS011;50167;47.958;21.780;2022-09-09T19:28:57;10.08;;;6.05;;
63975;SDS011;50167;47.958;21.780;2022-09-09T19:31:24;7.10;;;6.28;;
63975;SDS011;50167;47.958;21.780;2022-09-09T19:33:52;7.78;;;6.47;;
63975;SDS011;50167;47.958;21.780;2022-09-09T19:36:20;12.33;;;6.35;;
63975;SDS011;50167;47.958;21.780;2022-09-09T19:38:47;7.53;;;6.35;;
63975;SDS011;50167;47.958;21.780;2022-09-09T19:41:14;7.87;;;5.87;;
63975;SDS011;50167;47.958;21.780;2022-09-09T19:43:47;11.45;;;6.03;;
63975;SDS011;50167;47.958;21.780;2022-09-09T19:46:15;10.82;;;6.47;;
63975;SDS011;50167;47.958;21.780;2022-09-09T19:51:12;7.85;;;6.22;;
63975;SDS011;50167;47.958;21.780;2022-09-09T19:53:43;9.10;;;6.30;;
63975;SDS011;50167;47.958;21.780;2022-09-09T19:56:13;8.98;;;6.42;;
63975;SDS011;50167;47.958;21.780;2022-09-09T19:58:41;7.45;;;6.22;;
63975;SDS011;50167;47.958;21.780;2022-09-09T20:01:10;9.10;;;6.85;;
63975;SDS011;50167;47.958;21.780;2022-09-09T20:03:49;7.78;;;6.05;;
63975;SDS011;50167;47.958;21.780;2022-09-09T20:06:18;8.03;;;5.90;;
63975;SDS011;50167;47.958;21.780;2022-09-09T20:08:52;7.08;;;5.85;;
63975;SDS011;50167;47.958;21.780;2022-09-09T20:11:19;12.10;;;6.92;;
63975;SDS011;50167;47.958;21.780;2022-09-09T20:13:47;6.08;;;5.40;;
63975;SDS011;50167;47.958;21.780;2022-09-09T20:16:15;6.50;;;5.90;;
63975;SDS011;50167;47.958;21.780;2022-09-09T20:18:51;10.93;;;6.55;;
63975;SDS011;50167;47.958;21.780;2022-09-09T20:21:22;8.83;;;6.17;;
63975;SDS011;50167;47.958;21.780;2022-09-09T20:23:52;7.92;;;6.72;;
63975;SDS011;50167;47.958;21.780;2022-09-09T20:26:20;8.25;;;6.47;;
63975;SDS011;50167;47.958;21.780;2022-09-09T20:28:50;10.98;;;5.50;;
63975;SDS011;50167;47.958;21.780;2022-09-09T20:31:19;10.93;;;6.75;;
63975;SDS011;50167;47.958;21.780;2022-09-09T20:33:48;9.00;;;6.05;;
63975;SDS011;50167;47.958;21.780;2022-09-09T20:36:15;9.25;;;6.28;;
63975;SDS011;50167;47.958;21.780;2022-09-09T20:41:17;9.98;;;6.45;;
63975;SDS011;50167;47.958;21.780;2022-09-09T20:43:50;9.63;;;6.03;;
63975;SDS011;50167;47.958;21.780;2022-09-09T20:46:29;9.15;;;6.17;;
63975;SDS011;50167;47.958;21.780;2022-09-09T20:48:58;6.60;;;6.03;;
63975;SDS011;50167;47.958;21.780;2022-09-09T20:51:24;6.35;;;5.75;;
63975;SDS011;50167;47.958;21.780;2022-09-09T20:53:57;6.55;;;5.97;;
63975;SDS011;50167;47.958;21.780;2022-09-09T20:56:29;8.88;;;5.58;;
63975;SDS011;50167;47.958;21.780;2022-09-09T20:59:08;10.30;;;6.12;;
63975;SDS011;50167;47.958;21.780;2022-09-09T21:01:38;8.35;;;5.30;;
63975;SDS011;50167;47.958;21.780;2022-09-09T21:04:06;7.20;;;5.58;;
63975;SDS011;50167;47.958;21.780;2022-09-09T21:06:34;5.75;;;5.15;;
63975;SDS011;50167;47.958;21.780;2022-09-09T21:09:00;6.28;;;5.75;;
63975;SDS011;50167;47.958;21.780;2022-09-09T21:11:27;8.83;;;6.67;;
63975;SDS011;50167;47.958;21.780;2022-09-09T21:13:53;8.05;;;6.40;;
63975;SDS011;50167;47.958;21.780;2022-09-09T21:16:20;8.90;;;7.33;;
63975;SDS011;50167;47.958;21.780;2022-09-09T21:18:47;8.87;;;7.93;;
63975;SDS011;50167;47.958;21.780;2022-09-09T21:21:14;7.17;;;6.47;;
63975;SDS011;50167;47.958;21.780;2022-09-09T21:23:43;7.60;;;6.17;;
63975;SDS011;50167;47.958;21.780;2022-09-09T21:26:10;9.30;;;7.63;;
63975;SDS011;50167;47.958;21.780;2022-09-09T21:28:36;9.77;;;7.03;;
63975;SDS011;50167;47.958;21.780;2022-09-09T21:31:03;6.67;;;6.00;;
63975;SDS011;50167;47.958;21.780;2022-09-09T21:33:30;6.93;;;6.27;;
63975;SDS011;50167;47.958;21.780;2022-09-09T21:36:02;7.78;;;6.85;;
63975;SDS011;50167;47.958;21.780;2022-09-09T21:38:31;8.53;;;7.00;;
63975;SDS011;50167;47.958;21.780;2022-09-09T21:41:02;7.80;;;6.57;;
63975;SDS011;50167;47.958;21.780;2022-09-09T21:43:31;9.43;;;6.80;;
63975;SDS011;50167;47.958;21.780;2022-09-09T21:45:58;9.07;;;6.23;;
63975;SDS011;50167;47.958;21.780;2022-09-09T21:48:26;6.43;;;5.80;;
63975;SDS011;50167;47.958;21.780;2022-09-09T21:50:52;7.80;;;6.17;;
63975;SDS011;50167;47.958;21.780;2022-09-09T21:53:19;7.60;;;6.13;;
63975;SDS011;50167;47.958;21.780;2022-09-09T21:55:46;6.57;;;5.83;;
63975;SDS011;50167;47.958;21.780;2022-09-09T21:58:14;7.40;;;6.67;;
63975;SDS011;50167;47.958;21.780;2022-09-09T22:00:43;6.13;;;5.53;;
63975;SDS011;50167;47.958;21.780;2022-09-09T22:03:12;12.63;;;6.17;;
63975;SDS011;50167;47.958;21.780;2022-09-09T22:05:40;11.50;;;7.40;;
63975;SDS011;50167;47.958;21.780;2022-09-09T22:08:09;10.73;;;7.47;;
63975;SDS011;50167;47.958;21.780;2022-09-09T22:10:40;7.75;;;7.00;;
63975;SDS011;50167;47.958;21.780;2022-09-09T22:13:11;7.60;;;6.73;;
63975;SDS011;50167;47.958;21.780;2022-09-09T22:15:41;7.43;;;6.63;;
63975;SDS011;50167;47.958;21.780;2022-09-09T22:18:09;7.03;;;6.40;;
63975;SDS011;50167;47.958;21.780;2022-09-09T22:20:41;8.13;;;6.07;;
63975;SDS011;50167;47.958;21.780;2022-09-09T22:23:10;6.83;;;6.03;;
63975;SDS011;50167;47.958;21.780;2022-09-09T22:25:38;8.90;;;6.23;;
63975;SDS011;50167;47.958;21.780;2022-09-09T22:28:06;10.70;;;6.70;;
63975;SDS011;50167;47.958;21.780;2022-09-09T22:30:33;7.27;;;6.57;;
63975;SDS011;50167;47.958;21.780;2022-09-09T22:33:00;7.13;;;6.37;;
63975;SDS011;50167;47.958;21.780;2022-09-09T22:35:26;7.33;;;5.77;;
63975;SDS011;50167;47.958;21.780;2022-09-09T22:37:53;7.33;;;6.63;;
63975;SDS011;50167;47.958;21.780;2022-09-09T22:40:20;7.63;;;6.57;;
63975;SDS011;50167;47.958;21.780;2022-09-09T22:42:47;7.73;;;7.03;;
63975;SDS011;50167;47.958;21.780;2022-09-09T22:45:13;6.57;;;5.97;;
63975;SDS011;50167;47.958;21.780;2022-09-09T22:47:39;6.10;;;5.50;;
63975;SDS011;50167;47.958;21.780;2022-09-09T22:50:07;8.13;;;7.30;;
63975;SDS011;50167;47.958;21.780;2022-09-09T22:52:34;8.20;;;5.60;;
63975;SDS011;50167;47.958;21.780;2022-09-09T22:55:01;15.03;;;5.97;;
63975;SDS011;50167;47.958;21.780;2022-09-09T22:57:28;9.77;;;6.97;;
63975;SDS011;50167;47.958;21.780;2022-09-09T22:59:55;8.27;;;7.47;;
63975;SDS011;50167;47.958;21.780;2022-09-09T23:02:21;8.00;;;6.53;;
63975;SDS011;50167;47.958;21.780;2022-09-09T23:04:47;7.73;;;6.43;;
63975;SDS011;50167;47.958;21.780;2022-09-09T23:07:13;7.63;;;6.70;;
63975;SDS011;50167;47.958;21.780;2022-09-09T23:09:42;10.23;;;7.03;;
63975;SDS011;50167;47.958;21.780;2022-09-09T23:12:08;7.87;;;7.07;;
63975;SDS011;50167;47.958;21.780;2022-09-09T23:14:35;7.63;;;5.97;;
63975;SDS011;50167;47.958;21.780;2022-09-09T23:17:01;9.37;;;6.60;;
63975;SDS011;50167;47.958;21.780;2022-09-09T23:19:27;12.07;;;6.40;;
63975;SDS011;50167;47.958;21.780;2022-09-09T23:21:54;12.03;;;7.13;;
63975;SDS011;50167;47.958;21.780;2022-09-09T23:24:20;8.60;;;6.77;;
63975;SDS011;50167;47.958;21.780;2022-09-09T23:26:46;12.67;;;7.37;;
63975;SDS011;50167;47.958;21.780;2022-09-09T23:29:12;7.50;;;6.70;;
63975;SDS011;50167;47.958;21.780;2022-09-09T23:31:40;8.23;;;7.40;;
63975;SDS011;50167;47.958;21.780;2022-09-09T23:34:09;10.15;;;7.17;;
63975;SDS011;50167;47.958;21.780;2022-09-09T23:36:37;11.10;;;7.83;;
63975;SDS011;50167;47.958;21.780;2022-09-09T23:39:04;11.13;;;8.20;;
63975;SDS011;50167;47.958;21.780;2022-09-09T23:41:32;10.47;;;7.20;;
63975;SDS011;50167;47.958;21.780;2022-09-09T23:44:00;10.07;;;8.50;;
63975;SDS011;50167;47.958;21.780;2022-09-09T23:46:27;9.97;;;8.17;;
63975;SDS011;50167;47.958;21.780;2022-09-09T23:48:56;14.00;;;8.57;;
63975;SDS011;50167;47.958;21.780;2022-09-09T23:51:24;9.53;;;8.53;;
63975;SDS011;50167;47.958;21.780;2022-09-09T23:53:55;8.65;;;7.45;;
63975;SDS011;50167;47.958;21.780;2022-09-09T23:56:25;9.15;;;7.83;;
63975;SDS011;50167;47.958;21.780;2022-09-09T23:58:56;10.17;;;7.77;;
